createdAt,value
2019-03-27T00:01:25.363Z,99234.62
2019-03-27T00:04:14.184Z,99237.33
2019-03-27T00:07:02.979Z,99231.82
2019-03-27T00:09:51.788Z,99230.97
2019-03-27T00:12:40.586Z,99229.27
2019-03-27T00:15:29.401Z,99224.66
2019-03-27T00:18:18.203Z,99227.12
2019-03-27T00:21:07.033Z,99222.42
2019-03-27T00:24:03.395Z,99220.58
2019-03-27T00:26:52.240Z,99224.08
2019-03-27T00:29:41.028Z,99097.89
2019-03-27T00:32:29.849Z,98970.03
2019-03-27T00:35:18.666Z,99231.67
2019-03-27T00:38:07.464Z,99226.45
2019-03-27T00:41:15.303Z,99225.55
2019-03-27T00:44:23.125Z,99230.72
2019-03-27T00:47:05.211Z,99223.21
2019-03-27T00:49:54.017Z,99227.56
2019-03-27T00:52:35.813Z,99228.03
2019-03-27T00:55:43.619Z,99222.66
2019-03-27T00:58:32.420Z,99225.89
2019-03-27T01:01:21.233Z,99227.05
2019-03-27T01:04:10.042Z,99146.02
2019-03-27T01:06:58.848Z,99218.76
2019-03-27T01:09:47.668Z,99225.66
2019-03-27T01:12:36.465Z,99227.66
2019-03-27T01:15:34.339Z,99225.29
2019-03-27T01:18:15.813Z,99227.20
2019-03-27T01:21:05.225Z,99221.06
2019-03-27T01:23:54.021Z,99222.25
2019-03-27T01:26:42.843Z,98980.81
2019-03-27T01:29:31.646Z,99224.44
2019-03-27T01:32:20.463Z,99221.83
2019-03-27T01:35:09.335Z,99217.38
2019-03-27T01:40:52.874Z,99218.36
2019-03-27T01:43:41.701Z,99213.90
2019-03-27T01:46:30.498Z,99217.52
2019-03-27T01:49:12.585Z,99210.69
2019-03-27T01:52:01.399Z,99214.08
2019-03-27T01:54:50.194Z,98980.09
2019-03-27T01:57:39.014Z,99204.05
2019-03-27T02:00:27.809Z,98979.27
2019-03-27T02:03:16.628Z,99201.05
2019-03-27T02:06:05.500Z,99208.83
2019-03-27T02:08:54.325Z,99199.23
2019-03-27T02:11:43.207Z,99201.54
2019-03-27T02:17:39.759Z,99204.08
2019-03-27T02:20:28.560Z,99204.20
2019-03-27T02:23:17.362Z,99210.11
2019-03-27T02:26:06.236Z,98985.17
2019-03-27T02:28:55.045Z,99216.42
2019-03-27T02:31:43.857Z,99213.77
2019-03-27T02:34:32.671Z,99214.98
2019-03-27T02:37:21.473Z,99214.56
2019-03-27T02:40:10.991Z,99216.84
2019-03-27T02:42:59.824Z,99212.11
2019-03-27T02:45:48.649Z,99210.73
2019-03-27T02:48:37.443Z,99212.66
2019-03-27T02:51:18.902Z,99210.25
2019-03-27T02:54:07.703Z,99215.95
2019-03-27T02:56:56.520Z,99214.16
2019-03-27T02:59:45.352Z,99004.80
2019-03-27T03:02:34.143Z,99207.27
2019-03-27T03:05:22.961Z,99212.97
2019-03-27T03:08:11.754Z,99206.91
2019-03-27T03:11:00.579Z,99211.87
2019-03-27T03:13:49.387Z,99210.05
2019-03-27T03:16:42.854Z,99076.44
2019-03-27T03:19:28.735Z,99213.72
2019-03-27T03:22:17.523Z,99214.56
2019-03-27T03:25:06.616Z,99215.72
2019-03-27T03:30:49.271Z,99217.44
2019-03-27T03:33:38.067Z,99216.56
2019-03-27T03:36:26.878Z,99219.92
2019-03-27T03:39:15.948Z,99217.44
2019-03-27T03:42:04.777Z,99219.41
2019-03-27T03:44:53.552Z,99211.67
2019-03-27T03:47:42.436Z,99219.41
2019-03-27T03:50:43.072Z,99213.39
2019-03-27T03:53:32.132Z,99215.28
2019-03-27T03:56:41.865Z,99223.03
2019-03-27T03:59:30.932Z,99227.16
2019-03-27T04:02:20.124Z,99232.95
2019-03-27T04:05:28.671Z,99232.47
2019-03-27T04:08:17.466Z,99229.22
2019-03-27T04:11:06.276Z,99236.34
2019-03-27T04:13:55.169Z,99238.31
2019-03-27T04:16:43.954Z,99236.09
2019-03-27T04:19:32.747Z,99238.83
2019-03-27T04:22:21.568Z,99241.27
2019-03-27T04:25:10.401Z,99240.48
2019-03-27T04:27:59.199Z,99245.77
2019-03-27T04:30:48.025Z,99243.28
2019-03-27T04:33:37.082Z,99241.95
2019-03-27T04:36:25.910Z,99004.52
2019-03-27T04:39:14.700Z,99166.48
2019-03-27T04:42:03.528Z,99245.23
2019-03-27T04:44:52.322Z,99020.50
2019-03-27T04:50:28.333Z,99246.10
2019-03-27T04:53:17.129Z,99249.47
2019-03-27T04:56:05.947Z,99243.73
2019-03-27T04:58:54.747Z,99217.97
2019-03-27T05:02:02.583Z,99244.08
2019-03-27T05:08:00.767Z,99248.95
2019-03-27T05:10:49.558Z,99264.12
2019-03-27T05:13:38.380Z,99120.98
2019-03-27T05:16:27.180Z,99274.32
2019-03-27T05:19:16.000Z,99097.12
2019-03-27T05:22:04.798Z,99279.81
2019-03-27T05:24:53.620Z,99286.48
2019-03-27T05:27:42.432Z,99289.88
2019-03-27T05:30:31.309Z,99093.02
2019-03-27T05:33:20.102Z,99305.06
2019-03-27T05:36:08.924Z,99311.09
2019-03-27T05:38:57.729Z,99309.25
2019-03-27T05:41:46.540Z,99187.87
2019-03-27T05:44:35.344Z,99293.93
2019-03-27T05:47:24.158Z,99297.60
2019-03-27T05:50:13.043Z,99293.38
2019-03-27T05:52:55.023Z,99024.77
2019-03-27T05:55:44.901Z,99289.95
2019-03-27T05:58:33.727Z,99296.16
2019-03-27T06:04:16.823Z,99297.70
2019-03-27T06:07:05.651Z,99301.01
2019-03-27T06:09:54.464Z,99137.50
2019-03-27T06:12:43.292Z,99053.63
2019-03-27T06:15:32.106Z,99315.84
2019-03-27T06:18:20.932Z,99323.58
2019-03-27T06:21:09.752Z,99324.38
2019-03-27T06:23:58.550Z,99332.03
2019-03-27T06:26:47.371Z,99329.36
2019-03-27T06:29:36.165Z,99330.48
2019-03-27T06:32:24.987Z,99090.02
2019-03-27T06:35:13.847Z,99180.36
2019-03-27T06:38:02.750Z,99341.52
2019-03-27T06:40:51.570Z,99277.34
2019-03-27T06:43:40.388Z,99339.90
2019-03-27T06:46:29.203Z,99115.78
2019-03-27T06:49:37.061Z,99333.86
2019-03-27T06:52:19.129Z,99333.11
2019-03-27T06:58:23.146Z,99337.59
2019-03-27T07:01:11.977Z,99331.06
2019-03-27T07:04:10.467Z,99183.76
2019-03-27T07:06:51.340Z,99326.08
2019-03-27T07:09:42.482Z,99327.19
2019-03-27T07:12:30.967Z,99320.63
2019-03-27T07:15:20.080Z,99060.38
2019-03-27T07:18:08.908Z,99337.26
2019-03-27T07:21:16.733Z,99343.09
2019-03-27T07:24:05.571Z,99345.89
2019-03-27T07:26:54.370Z,99125.80
2019-03-27T07:29:43.182Z,99358.42
2019-03-27T07:32:32.022Z,99354.94
2019-03-27T07:35:20.820Z,99357.74
2019-03-27T07:38:09.644Z,99368.39
2019-03-27T07:40:58.442Z,99167.63
2019-03-27T07:43:47.281Z,99365.67
2019-03-27T07:46:36.093Z,99144.14
2019-03-27T07:49:24.915Z,99373.28
2019-03-27T07:52:13.714Z,99380.07
2019-03-27T07:55:02.536Z,99376.81
2019-03-27T08:00:59.089Z,99257.42
2019-03-27T08:03:47.898Z,99381.78
2019-03-27T08:06:36.718Z,99376.22
2019-03-27T08:09:25.521Z,99374.05
2019-03-27T08:12:14.336Z,99222.10
2019-03-27T08:18:17.930Z,99254.09
2019-03-27T08:21:06.757Z,99382.55
2019-03-27T08:23:55.556Z,99382.34
2019-03-27T08:26:44.389Z,99382.26
2019-03-27T08:29:33.182Z,99251.56
2019-03-27T08:32:22.012Z,99374.92
2019-03-27T08:38:39.388Z,99382.73
2019-03-27T08:41:28.185Z,99381.50
2019-03-27T08:44:17.010Z,99384.18
2019-03-27T08:47:05.818Z,99385.22
2019-03-27T08:49:54.643Z,99188.70
2019-03-27T08:52:36.140Z,99383.50
2019-03-27T08:55:24.961Z,99316.88
2019-03-27T08:58:13.773Z,99386.08
2019-03-27T09:01:02.599Z,99388.59
2019-03-27T09:03:51.398Z,99389.58
2019-03-27T09:06:40.298Z,99217.25
2019-03-27T09:09:29.102Z,99399.09
2019-03-27T09:12:17.928Z,99399.53
2019-03-27T09:15:27.630Z,99390.49
2019-03-27T09:18:17.020Z,99233.17
2019-03-27T09:21:06.971Z,99395.22
2019-03-27T09:23:55.797Z,99389.22
2019-03-27T09:26:44.685Z,99396.95
2019-03-27T09:29:33.507Z,99397.75
2019-03-27T09:32:22.331Z,99396.92
2019-03-27T09:38:39.554Z,99403.41
2019-03-27T09:41:28.367Z,99402.09
2019-03-27T09:44:17.184Z,99400.73
2019-03-27T09:47:06.019Z,99406.36
2019-03-27T09:49:54.820Z,99405.55
2019-03-27T09:52:36.544Z,99409.80
2019-03-27T09:58:20.199Z,99405.48
2019-03-27T10:01:09.053Z,99400.11
2019-03-27T10:03:57.850Z,99410.61
2019-03-27T10:06:46.677Z,99166.66
2019-03-27T10:09:35.497Z,99410.11
2019-03-27T10:12:24.371Z,99414.42
2019-03-27T10:15:13.531Z,99414.95
2019-03-27T10:18:02.367Z,99417.55
2019-03-27T10:20:51.173Z,99423.17
2019-03-27T10:23:39.999Z,99423.20
2019-03-27T10:26:28.824Z,99242.17
2019-03-27T10:29:17.645Z,99417.17
2019-03-27T10:32:06.472Z,99415.80
2019-03-27T10:34:55.276Z,99419.16
2019-03-27T10:37:44.073Z,99419.50
2019-03-27T10:40:32.895Z,99408.77
2019-03-27T10:43:21.699Z,99413.34
2019-03-27T10:46:10.523Z,99413.87
2019-03-27T10:48:59.336Z,99412.38
2019-03-27T10:51:41.263Z,99409.50
2019-03-27T10:54:30.087Z,99410.60
2019-03-27T10:57:18.913Z,99412.77
2019-03-27T11:00:28.928Z,99251.88
2019-03-27T11:03:17.991Z,99418.61
2019-03-27T11:06:06.786Z,99427.58
2019-03-27T11:08:55.602Z,99355.84
2019-03-27T11:11:44.441Z,99421.34
2019-03-27T11:14:52.293Z,99418.55
2019-03-27T11:19:55.256Z,99413.20
2019-03-27T11:23:03.082Z,99405.13
2019-03-27T11:25:33.341Z,99189.75
2019-03-27T11:28:41.163Z,99403.52
2019-03-27T11:31:29.985Z,99397.72
2019-03-27T11:34:18.791Z,99389.92
2019-03-27T11:37:07.615Z,99390.70
2019-03-27T11:39:56.412Z,99385.82
2019-03-27T11:42:45.236Z,99383.02
2019-03-27T11:45:34.059Z,99385.70
2019-03-27T11:48:22.854Z,99384.78
2019-03-27T11:51:11.677Z,99389.47
2019-03-27T11:53:53.814Z,99387.55
2019-03-27T11:56:42.645Z,99382.48
2019-03-27T11:59:31.448Z,99386.14
2019-03-27T12:02:20.267Z,99385.90
2019-03-27T12:05:09.136Z,99388.72
2019-03-27T12:07:57.964Z,99388.52
2019-03-27T12:10:47.630Z,99393.04
2019-03-27T12:13:36.449Z,99219.41
2019-03-27T12:16:25.263Z,99389.04
2019-03-27T12:19:14.219Z,99395.38
2019-03-27T12:25:10.920Z,99387.59
2019-03-27T12:27:59.739Z,99388.78
2019-03-27T12:30:48.577Z,99384.73
2019-03-27T12:33:37.380Z,99372.75
2019-03-27T12:36:26.264Z,99358.45
2019-03-27T12:39:15.071Z,99379.78
2019-03-27T12:42:03.896Z,99374.03
2019-03-27T12:44:52.715Z,99371.96
2019-03-27T12:47:41.584Z,99378.02
2019-03-27T12:50:30.405Z,99378.25
2019-03-27T12:53:11.638Z,99381.69
2019-03-27T12:56:00.468Z,99197.88
2019-03-27T12:58:49.274Z,99379.32
2019-03-27T13:01:38.087Z,99382.16
2019-03-27T13:04:26.902Z,99383.82
2019-03-27T13:07:15.724Z,99383.63
2019-03-27T13:10:25.434Z,99167.02
2019-03-27T13:13:14.259Z,99381.78
2019-03-27T13:19:10.885Z,99371.55
2019-03-27T13:21:59.711Z,99373.50
2019-03-27T13:25:07.554Z,99381.12
2019-03-27T13:27:56.385Z,99175.41
2019-03-27T13:30:25.870Z,99375.56
2019-03-27T13:33:14.683Z,99372.45
2019-03-27T13:36:03.507Z,99314.66
2019-03-27T13:38:52.306Z,99379.01
2019-03-27T13:41:41.149Z,99390.14
2019-03-27T13:44:36.723Z,99386.83
2019-03-27T13:47:20.509Z,99384.66
2019-03-27T13:50:30.220Z,99319.59
2019-03-27T13:53:19.036Z,99380.65
2019-03-27T13:56:00.746Z,99301.83
2019-03-27T13:58:49.545Z,99389.23
2019-03-27T14:01:38.687Z,99386.83
2019-03-27T14:04:27.545Z,99391.02
2019-03-27T14:07:16.347Z,99230.94
2019-03-27T14:10:07.097Z,99377.45
2019-03-27T14:12:55.912Z,99376.03
2019-03-27T14:15:44.734Z,99371.18
2019-03-27T14:18:33.568Z,99368.32
2019-03-27T14:21:23.404Z,99369.00
2019-03-27T14:24:12.909Z,99367.11
2019-03-27T14:27:01.723Z,99289.42
2019-03-27T14:29:50.552Z,99366.34
2019-03-27T14:32:39.356Z,99368.99
2019-03-27T14:35:28.181Z,99301.45
2019-03-27T14:38:16.998Z,99359.73
2019-03-27T14:41:05.821Z,99172.16
2019-03-27T14:43:54.640Z,99352.03
2019-03-27T14:46:43.452Z,99353.23
2019-03-27T14:49:32.273Z,99359.53
2019-03-27T14:52:14.100Z,99360.23
2019-03-27T14:55:03.519Z,99358.52
2019-03-27T14:57:53.473Z,99358.50
2019-03-27T15:00:42.270Z,99358.83
2019-03-27T15:03:31.090Z,99348.02
2019-03-27T15:06:19.894Z,99148.58
2019-03-27T15:09:09.384Z,99351.34
2019-03-27T15:11:58.193Z,99294.15
2019-03-27T15:14:47.019Z,99345.48
2019-03-27T15:17:35.893Z,99343.83
2019-03-27T15:20:24.713Z,99345.05
2019-03-27T15:23:13.525Z,99341.63
2019-03-27T15:26:02.414Z,99279.38
2019-03-27T15:28:51.272Z,99344.96
2019-03-27T15:31:40.031Z,99342.70
2019-03-27T15:34:28.865Z,99349.83
2019-03-27T15:37:17.744Z,99130.57
2019-03-27T15:40:06.867Z,99356.64
2019-03-27T15:42:55.733Z,99157.45
2019-03-27T15:45:44.571Z,99351.01
2019-03-27T15:48:33.426Z,99166.43
2019-03-27T15:51:15.328Z,99342.75
2019-03-27T15:54:04.283Z,99342.75
2019-03-27T15:56:53.116Z,99176.13
2019-03-27T15:59:41.932Z,99345.14
2019-03-27T16:02:30.734Z,99270.97
2019-03-27T16:05:19.565Z,99355.67
2019-03-27T16:08:08.383Z,99348.08
2019-03-27T16:10:57.221Z,99343.66
2019-03-27T16:13:46.010Z,99353.09
2019-03-27T16:16:34.892Z,99356.95
2019-03-27T16:19:23.646Z,99360.16
2019-03-27T16:22:12.468Z,99359.25
2019-03-27T16:25:01.283Z,99362.89
2019-03-27T16:27:50.088Z,99362.98
2019-03-27T16:30:38.919Z,99199.05
2019-03-27T16:33:27.716Z,99362.62
2019-03-27T16:36:16.541Z,99363.88
2019-03-27T16:39:26.260Z,99369.82
2019-03-27T16:42:15.087Z,99377.69
2019-03-27T16:45:24.819Z,99150.67
2019-03-27T16:48:13.824Z,99379.27
2019-03-27T16:51:02.627Z,99373.67
2019-03-27T16:53:44.736Z,99375.73
2019-03-27T16:56:33.553Z,99385.28
2019-03-27T16:59:22.374Z,99382.73
2019-03-27T17:02:11.271Z,99179.03
2019-03-27T17:05:00.095Z,99390.45
2019-03-27T17:07:48.984Z,99195.27
2019-03-27T17:10:37.779Z,99391.78
2019-03-27T17:13:26.608Z,99176.01
2019-03-27T17:16:15.496Z,99391.75
2019-03-27T17:19:04.329Z,99196.53
2019-03-27T17:21:53.134Z,99392.95
2019-03-27T17:24:41.964Z,99395.96
2019-03-27T17:27:30.790Z,99397.44
2019-03-27T17:30:20.046Z,99398.09
2019-03-27T17:33:08.875Z,99177.83
2019-03-27T17:35:38.374Z,99348.13
2019-03-27T17:41:34.932Z,99406.63
2019-03-27T17:44:23.764Z,99411.28
2019-03-27T17:47:12.650Z,99210.25
2019-03-27T17:50:01.468Z,99415.31
2019-03-27T17:52:42.941Z,99221.96
2019-03-27T17:55:31.771Z,99422.37
2019-03-27T17:58:20.589Z,99427.44
2019-03-27T18:01:09.666Z,99428.46
2019-03-27T18:03:58.491Z,99427.86
2019-03-27T18:07:06.324Z,99437.56
2019-03-27T18:09:55.169Z,99424.53
2019-03-27T18:12:43.990Z,99441.77
2019-03-27T18:15:32.791Z,99441.28
2019-03-27T18:18:21.606Z,99203.94
2019-03-27T18:21:10.409Z,99445.59
2019-03-27T18:29:47.564Z,99441.91
2019-03-27T18:32:36.359Z,99442.16
2019-03-27T18:35:25.188Z,99445.72
2019-03-27T18:38:13.987Z,99312.98
2019-03-27T18:41:02.882Z,99453.94
2019-03-27T18:43:51.680Z,99455.66
2019-03-27T18:46:40.499Z,99455.16
2019-03-27T18:49:29.303Z,99457.00
2019-03-27T18:52:10.875Z,99468.66
2019-03-27T18:54:59.679Z,99470.74
2019-03-27T18:57:59.345Z,99470.27
2019-03-27T19:00:39.353Z,99222.25
2019-03-27T19:03:28.208Z,99478.62
2019-03-27T19:06:17.041Z,99488.55
2019-03-27T19:09:26.754Z,99486.31
2019-03-27T19:12:15.576Z,99236.15
2019-03-27T19:15:25.298Z,99494.18
2019-03-27T19:18:14.095Z,99255.59
2019-03-27T19:21:02.919Z,99505.41
2019-03-27T19:23:51.727Z,99507.85
2019-03-27T19:26:40.540Z,99240.81
2019-03-27T19:29:29.339Z,99506.52
2019-03-27T19:32:18.231Z,99515.51
2019-03-27T19:35:07.095Z,99515.51
2019-03-27T19:37:55.944Z,99438.20
2019-03-27T19:40:44.805Z,99292.02
2019-03-27T19:43:33.634Z,99515.45
2019-03-27T19:46:22.442Z,99513.52
2019-03-27T19:49:11.331Z,99514.75
2019-03-27T19:52:00.133Z,99518.89
2019-03-27T19:54:41.854Z,99517.66
2019-03-27T19:57:30.925Z,99520.03
2019-03-27T20:03:35.122Z,99377.02
2019-03-27T20:06:43.160Z,99517.96
2019-03-27T20:09:32.014Z,99523.52
2019-03-27T20:12:20.832Z,99526.81
2019-03-27T20:15:12.132Z,99248.02
2019-03-27T20:18:00.435Z,99522.62
2019-03-27T20:20:49.663Z,99520.22
2019-03-27T20:23:38.489Z,99491.67
2019-03-27T20:29:35.113Z,99520.97
2019-03-27T20:32:23.916Z,99515.95
2019-03-27T20:35:12.798Z,99512.11
2019-03-27T20:38:01.598Z,99513.42
2019-03-27T20:40:43.139Z,99515.75
2019-03-27T20:43:31.895Z,99516.44
2019-03-27T20:49:14.977Z,99514.20
2019-03-27T20:52:22.811Z,99519.38
2019-03-27T20:55:11.771Z,99519.56
2019-03-27T20:58:00.603Z,99517.92
2019-03-27T21:01:08.811Z,99513.23
2019-03-27T21:03:57.642Z,99518.61
2019-03-27T21:06:46.467Z,99521.28
2019-03-27T21:09:35.267Z,99519.44
2019-03-27T21:12:24.090Z,99521.81
2019-03-27T21:15:12.949Z,99522.64
2019-03-27T21:18:01.805Z,99524.49
2019-03-27T21:20:50.620Z,99531.97
2019-03-27T21:23:39.443Z,99302.91
2019-03-27T21:26:28.318Z,99526.70
2019-03-27T21:29:17.123Z,99526.34
2019-03-27T21:32:05.940Z,99532.84
2019-03-27T21:35:13.759Z,99529.29
2019-03-27T21:37:53.513Z,99532.02
2019-03-27T21:40:42.360Z,99535.97
2019-03-27T21:43:31.164Z,99526.75
2019-03-27T21:49:27.732Z,99528.38
2019-03-27T21:52:16.520Z,99539.20
2019-03-27T21:55:24.666Z,99543.87
2019-03-27T21:58:13.508Z,99543.46
2019-03-27T22:01:02.379Z,99398.96
2019-03-27T22:03:51.216Z,99546.55
2019-03-27T22:06:40.029Z,99472.01
2019-03-27T22:09:28.824Z,99543.13
2019-03-27T22:12:17.642Z,99550.16
2019-03-27T22:15:25.756Z,99552.19
2019-03-27T22:18:14.580Z,99554.92
2019-03-27T22:21:03.384Z,99555.06
2019-03-27T22:23:52.242Z,99337.94
2019-03-27T22:26:41.049Z,99562.09
2019-03-27T22:29:29.861Z,99563.76
2019-03-27T22:32:18.923Z,99566.13
2019-03-27T22:38:27.303Z,99565.75
2019-03-27T22:41:16.095Z,99561.59
2019-03-27T22:44:04.910Z,99557.20
2019-03-27T22:46:53.730Z,99295.98
2019-03-27T22:49:42.558Z,99564.95
2019-03-27T22:52:31.346Z,99566.30
2019-03-27T22:55:20.170Z,99561.55
2019-03-27T22:58:08.962Z,99562.39
2019-03-27T23:03:53.747Z,99559.05
2019-03-27T23:06:42.550Z,99551.87
2019-03-27T23:09:31.367Z,99553.97
2019-03-27T23:15:27.984Z,99563.91
2019-03-27T23:18:17.442Z,99567.01
2019-03-27T23:21:25.280Z,99569.02
2019-03-27T23:24:14.070Z,99577.08
2019-03-27T23:27:02.908Z,99367.44
2019-03-27T23:29:51.695Z,99576.21
2019-03-27T23:32:40.522Z,99574.63
2019-03-27T23:35:29.319Z,99576.57
2019-03-27T23:38:18.134Z,99581.19
2019-03-27T23:40:59.677Z,99582.71
2019-03-27T23:43:49.080Z,99602.70
2019-03-27T23:46:39.012Z,99591.33
2019-03-27T23:49:27.809Z,99331.75
2019-03-27T23:52:16.630Z,99580.47
2019-03-27T23:58:34.499Z,99578.94
